Time,TemperatureF,DewpointF,PressureIn,WindDirection,WindDirectionDegrees,WindSpeedMPH,WindSpeedGustMPH,Humidity,HourlyPrecipIn,Conditions,Clouds,dailyrainin,SoftwareType,DateUTC
2013-07-25 00:12:00,70.3,55.7,29.76,ESE,112,3.7,-999.0,60,-99.99,,,0.00,Acu-Link.com,2013-07-25 04:12:00,
2013-07-25 00:27:00,69.6,55.1,29.76,East,90,4.2,-999.0,60,-99.99,,,0.00,Acu-Link.com,2013-07-25 04:27:00,
2013-07-25 00:43:00,69.4,54.4,29.76,ESE,112,1.7,-999.0,59,-99.99,,,0.00,Acu-Link.com,2013-07-25 04:43:00,
2013-07-25 00:58:00,69.4,54.9,29.76,NE,45,3.2,-999.0,60,-99.99,,,0.00,Acu-Link.com,2013-07-25 04:58:00,
2013-07-25 01:13:00,69.8,55.7,29.76,East,90,1.1,-999.0,61,-99.99,,,0.00,Acu-Link.com,2013-07-25 05:13:00,
2013-07-25 01:29:00,69.3,55.3,29.75,East,90,3.7,-999.0,61,-99.99,,,0.00,Acu-Link.com,2013-07-25 05:29:00,
2013-07-25 01:44:00,69.3,55.7,29.75,SSW,202,1.1,-999.0,62,-99.99,,,0.00,Acu-Link.com,2013-07-25 05:44:00,
2013-07-25 01:59:00,68.9,55.8,29.74,ESE,112,1.1,-999.0,63,-99.99,,,0.00,Acu-Link.com,2013-07-25 05:59:00,
2013-07-25 02:15:00,68.9,55.3,29.74,South,180,0.0,-999.0,62,-99.99,,,0.00,Acu-Link.com,2013-07-25 06:15:00,
2013-07-25 02:30:00,69.4,55.4,29.75,NE,45,1.7,-999.0,61,-99.99,,,0.00,Acu-Link.com,2013-07-25 06:30:00,
2013-07-25 02:45:00,68.2,53.8,29.74,ESE,112,3.2,-999.0,60,-99.99,,,0.00,Acu-Link.com,2013-07-25 06:45:00,
2013-07-25 03:00:00,68.2,54.2,29.75,East,90,1.7,-999.0,61,-99.99,,,0.00,Acu-Link.com,2013-07-25 07:00:00,
2013-07-25 03:15:00,68.4,54.0,29.74,East,90,2.2,-999.0,60,-99.99,,,0.00,Acu-Link.com,2013-07-25 07:15:00,
2013-07-25 03:31:00,68.0,53.6,29.75,North,0,0.0,-999.0,60,-99.99,,,0.00,Acu-Link.com,2013-07-25 07:31:00,
2013-07-25 04:17:00,68.0,53.6,29.75,SSE,157,1.1,-999.0,60,-99.99,,,0.00,Acu-Link.com,2013-07-25 08:17:00,
2013-07-25 04:32:00,67.5,53.1,29.75,SE,135,3.7,-999.0,60,-99.99,,,0.00,Acu-Link.com,2013-07-25 08:32:00,
2013-07-25 04:47:00,67.1,53.2,29.76,ESE,112,3.2,-999.0,61,-99.99,,,0.00,Acu-Link.com,2013-07-25 08:47:00,
2013-07-25 05:03:00,67.1,53.2,29.76,ESE,112,1.7,-999.0,61,-99.99,,,0.00,Acu-Link.com,2013-07-25 09:03:00,
2013-07-25 05:18:00,67.1,52.7,29.76,NE,45,1.1,-999.0,60,-99.99,,,0.00,Acu-Link.com,2013-07-25 09:18:00,
2013-07-25 05:33:00,66.9,52.1,29.76,East,90,1.7,-999.0,59,-99.99,,,0.00,Acu-Link.com,2013-07-25 09:33:00,
2013-07-25 05:48:00,66.9,51.6,29.77,ESE,112,1.1,-999.0,58,-99.99,,,0.00,Acu-Link.com,2013-07-25 09:48:00,
2013-07-25 06:03:00,66.7,51.9,29.77,East,90,1.1,-999.0,59,-99.99,,,0.00,Acu-Link.com,2013-07-25 10:03:00,
2013-07-25 06:19:00,66.6,51.8,29.77,East,90,2.2,-999.0,59,-99.99,,,0.00,Acu-Link.com,2013-07-25 10:19:00,
2013-07-25 06:34:00,66.4,51.6,29.77,NNE,22,2.2,-999.0,59,-99.99,,,0.00,Acu-Link.com,2013-07-25 10:34:00,
2013-07-25 06:49:00,66.4,51.6,29.78,ESE,112,2.2,-999.0,59,-99.99,,,0.00,Acu-Link.com,2013-07-25 10:49:00,
2013-07-25 07:05:00,66.0,51.3,29.78,SSW,202,0.0,-999.0,59,-99.99,,,0.00,Acu-Link.com,2013-07-25 11:05:00,
2013-07-25 07:20:00,66.0,51.3,29.79,ESE,112,0.0,-999.0,59,-99.99,,,0.00,Acu-Link.com,2013-07-25 11:20:00,
2013-07-25 07:35:00,66.4,52.1,29.80,ESE,112,0.0,-999.0,60,-99.99,,,0.00,Acu-Link.com,2013-07-25 11:35:00,
2013-07-25 07:51:00,66.4,52.1,29.81,ESE,112,2.2,-999.0,60,-99.99,,,0.00,Acu-Link.com,2013-07-25 11:51:00,
2013-07-25 08:06:00,66.6,52.3,29.81,ESE,112,2.2,-999.0,60,-99.99,,,0.00,Acu-Link.com,2013-07-25 12:06:00,
2013-07-25 08:21:00,66.4,52.5,29.82,East,90,0.0,-999.0,61,-99.99,,,0.00,Acu-Link.com,2013-07-25 12:21:00,
2013-07-25 08:52:00,66.7,53.3,29.83,ESE,112,2.2,-999.0,62,-99.99,,,0.00,Acu-Link.com,2013-07-25 12:52:00,
2013-07-25 09:07:00,66.6,53.2,29.83,East,90,1.1,-999.0,62,-99.99,,,0.00,Acu-Link.com,2013-07-25 13:07:00,
2013-07-25 09:22:00,67.1,53.2,29.84,ENE,67,0.0,-999.0,61,-99.99,,,0.00,Acu-Link.com,2013-07-25 13:22:00,
2013-07-25 09:38:00,67.1,53.6,29.84,ESE,112,1.7,-999.0,62,-99.99,,,0.00,Acu-Link.com,2013-07-25 13:38:00,
2013-07-25 09:53:00,66.7,53.3,29.84,East,90,1.7,-999.0,62,-99.99,,,0.00,Acu-Link.com,2013-07-25 13:53:00,
2013-07-25 10:08:00,66.7,52.8,29.84,East,90,2.2,-999.0,61,-99.99,,,0.00,Acu-Link.com,2013-07-25 14:08:00,
2013-07-25 10:24:00,67.3,53.4,29.84,East,90,3.2,-999.0,61,-99.99,,,0.00,Acu-Link.com,2013-07-25 14:24:00,
2013-07-25 10:39:00,67.3,53.8,29.84,East,90,0.0,-999.0,62,-99.99,,,0.00,Acu-Link.com,2013-07-25 14:39:00,
2013-07-25 10:54:00,67.6,54.1,29.84,West,270,0.0,-999.0,62,-99.99,,,0.00,Acu-Link.com,2013-07-25 14:54:00,
2013-07-25 11:10:00,67.6,53.7,29.84,ESE,112,2.2,-999.0,61,-99.99,,,0.00,Acu-Link.com,2013-07-25 15:10:00,
2013-07-25 11:25:00,67.6,53.2,29.86,ESE,112,4.7,-999.0,60,-99.99,,,0.00,Acu-Link.com,2013-07-25 15:25:00,
2013-07-25 11:40:00,67.1,53.6,29.87,East,90,5.3,-999.0,62,-99.99,,,0.00,Acu-Link.com,2013-07-25 15:40:00,
2013-07-25 11:55:00,67.1,53.6,29.87,East,90,2.7,-999.0,62,-99.99,,,0.00,Acu-Link.com,2013-07-25 15:55:00,
2013-07-25 12:11:00,67.3,53.8,29.87,East,90,3.7,-999.0,62,-99.99,,,0.00,Acu-Link.com,2013-07-25 16:11:00,
2013-07-25 12:26:00,67.1,54.1,29.87,ESE,112,2.2,-999.0,63,-99.99,,,0.00,Acu-Link.com,2013-07-25 16:26:00,
2013-07-25 12:41:00,66.9,54.3,29.87,East,90,2.2,-999.0,64,-99.99,,,0.00,Acu-Link.com,2013-07-25 16:41:00,
2013-07-25 12:57:00,67.1,54.5,29.86,East,90,2.7,-999.0,64,-99.99,,,0.00,Acu-Link.com,2013-07-25 16:57:00,
2013-07-25 13:12:00,67.1,54.5,29.85,East,90,3.2,-999.0,64,-99.99,,,0.00,Acu-Link.com,2013-07-25 17:12:00,
2013-07-25 13:27:00,67.6,55.4,29.86,NNE,22,1.7,-999.0,65,-99.99,,,0.00,Acu-Link.com,2013-07-25 17:27:00,
2013-07-25 13:43:00,68.0,55.8,29.87,ESE,112,0.0,-999.0,65,-99.99,,,0.00,Acu-Link.com,2013-07-25 17:43:00,
2013-07-25 13:58:00,67.6,55.8,29.87,ESE,112,2.7,-999.0,66,-99.99,,,0.00,Acu-Link.com,2013-07-25 17:58:00,
2013-07-25 14:13:00,67.8,56.0,29.86,East,90,3.2,-999.0,66,-99.99,,,0.00,Acu-Link.com,2013-07-25 18:13:00,
2013-07-25 14:28:00,68.2,56.8,29.86,ESE,112,2.7,-999.0,67,-99.99,,,0.00,Acu-Link.com,2013-07-25 18:28:00,
2013-07-25 14:43:00,68.9,57.5,29.86,South,180,1.1,-999.0,67,-99.99,,,0.00,Acu-Link.com,2013-07-25 18:43:00,
2013-07-25 14:59:00,68.4,57.0,29.86,SE,135,1.7,-999.0,67,-99.99,,,0.00,Acu-Link.com,2013-07-25 18:59:00,
2013-07-25 15:14:00,68.5,57.1,29.86,ESE,112,2.2,-999.0,67,-99.99,,,0.00,Acu-Link.com,2013-07-25 19:14:00,
2013-07-25 15:29:00,68.0,57.0,29.86,East,90,2.2,-999.0,68,-99.99,,,0.00,Acu-Link.com,2013-07-25 19:29:00,
2013-07-25 15:45:00,68.2,57.2,29.86,East,90,2.2,-999.0,68,-99.99,,,0.00,Acu-Link.com,2013-07-25 19:45:00,
2013-07-25 16:00:00,68.0,57.4,29.86,ESE,112,0.0,-999.0,69,-99.99,,,0.00,Acu-Link.com,2013-07-25 20:00:00,
2013-07-25 16:15:00,68.0,57.8,29.86,ESE,112,2.7,-999.0,70,-99.99,,,0.00,Acu-Link.com,2013-07-25 20:15:00,
2013-07-25 16:31:00,68.0,57.8,29.86,ESE,112,3.2,-999.0,70,-99.99,,,0.00,Acu-Link.com,2013-07-25 20:31:00,
2013-07-25 17:01:00,67.3,58.0,29.86,ESE,112,2.2,-999.0,72,-99.99,,,0.00,Acu-Link.com,2013-07-25 21:01:00,
2013-07-25 17:17:00,68.2,58.8,29.85,East,90,1.7,-999.0,72,-99.99,,,0.00,Acu-Link.com,2013-07-25 21:17:00,
2013-07-25 17:32:00,68.5,59.1,29.86,ESE,112,1.1,-999.0,72,-99.99,,,0.00,Acu-Link.com,2013-07-25 21:32:00,
2013-07-25 17:47:00,68.5,59.1,29.86,East,90,0.0,-999.0,72,-99.99,,,0.00,Acu-Link.com,2013-07-25 21:47:00,
2013-07-25 18:02:00,68.9,59.1,29.85,West,270,0.0,-999.0,71,-99.99,,,0.00,Acu-Link.com,2013-07-25 22:02:00,
2013-07-25 18:17:00,68.5,59.1,29.85,East,90,2.7,-999.0,72,-99.99,,,0.00,Acu-Link.com,2013-07-25 22:17:00,
2013-07-25 18:32:00,68.2,58.8,29.86,ESE,112,1.7,-999.0,72,-99.99,,,0.00,Acu-Link.com,2013-07-25 22:32:00,
2013-07-25 18:47:00,68.2,58.4,29.86,ENE,67,1.7,-999.0,71,-99.99,,,0.00,Acu-Link.com,2013-07-25 22:47:00,
2013-07-25 19:02:00,68.0,58.2,29.86,East,90,3.7,-999.0,71,-99.99,,,0.00,Acu-Link.com,2013-07-25 23:02:00,
2013-07-25 19:17:00,68.0,58.2,29.86,ESE,112,0.0,-999.0,71,-99.99,,,0.00,Acu-Link.com,2013-07-25 23:17:00,
2013-07-25 19:33:00,68.2,58.0,29.87,East,90,0.0,-999.0,70,-99.99,,,0.00,Acu-Link.com,2013-07-25 23:33:00,
2013-07-25 19:48:00,68.4,58.2,29.87,ESE,112,0.0,-999.0,70,-99.99,,,0.00,Acu-Link.com,2013-07-25 23:48:00,
2013-07-25 20:03:00,68.5,58.3,29.87,East,90,2.2,-999.0,70,-99.99,,,0.00,Acu-Link.com,2013-07-26 00:03:00,
2013-07-25 20:18:00,68.5,57.9,29.87,East,90,0.0,-999.0,69,-99.99,,,0.00,Acu-Link.com,2013-07-26 00:18:00,
2013-07-25 20:33:00,68.7,58.1,29.86,East,90,2.7,-999.0,69,-99.99,,,0.00,Acu-Link.com,2013-07-26 00:33:00,
2013-07-25 20:48:00,68.5,57.9,29.87,NE,45,0.0,-999.0,69,-99.99,,,0.00,Acu-Link.com,2013-07-26 00:48:00,
2013-07-25 21:04:00,68.7,58.1,29.87,SE,135,0.0,-999.0,69,-99.99,,,0.00,Acu-Link.com,2013-07-26 01:04:00,
2013-07-25 21:19:00,68.7,58.1,29.86,East,90,0.0,-999.0,69,-99.99,,,0.00,Acu-Link.com,2013-07-26 01:19:00,
2013-07-25 21:34:00,68.2,57.6,29.85,ESE,112,3.2,-999.0,69,-99.99,,,0.00,Acu-Link.com,2013-07-26 01:34:00,
2013-07-25 21:49:00,68.2,58.0,29.86,ESE,112,0.0,-999.0,70,-99.99,,,0.00,Acu-Link.com,2013-07-26 01:49:00,
2013-07-25 22:05:00,68.0,57.8,29.86,East,90,1.1,-999.0,70,-99.99,,,0.00,Acu-Link.com,2013-07-26 02:05:00,
2013-07-25 22:20:00,68.0,57.8,29.86,ESE,112,0.0,-999.0,70,-99.99,,,0.00,Acu-Link.com,2013-07-26 02:20:00,
2013-07-25 22:35:00,68.2,58.0,29.86,East,90,0.0,-999.0,70,-99.99,,,0.00,Acu-Link.com,2013-07-26 02:35:00,
2013-07-25 22:50:00,68.4,58.6,29.86,East,90,1.7,-999.0,71,-99.99,,,0.00,Acu-Link.com,2013-07-26 02:50:00,
2013-07-25 23:05:00,68.0,59.0,29.86,East,90,0.0,-999.0,73,-99.99,,,0.00,Acu-Link.com,2013-07-26 03:05:00,
2013-07-25 23:20:00,67.6,60.1,29.85,ESE,112,0.0,-999.0,77,-99.99,,,0.00,Acu-Link.com,2013-07-26 03:20:00,
2013-07-25 23:36:00,67.1,60.0,29.86,ESE,112,0.0,-999.0,78,-99.99,,,0.00,Acu-Link.com,2013-07-26 03:36:00,
2013-07-25 23:51:00,67.3,60.6,29.85,South,180,1.7,-999.0,79,-99.99,,,0.00,Acu-Link.com,2013-07-26 03:51:00,